Agency, Iowa
Current Conditions -  °F | °C
As of 10:53 PM on Thursday 30 Oct 2014 (Local Time) from KOTM Reporting Station
Overcast Overcast  
Wind Chill: 44°   Ceiling: 5500
Heat Index: 49°   Visibility: 10mi
Dew Point: 39°   Wind: 12mph
Humidity: 69%   Direction: 330°NNW
Pressure: 30.15"   Gusts: NA
Location:  41°N, 92.31°W
Report Text: KOTM 310353Z AUTO 33010KT 10SM OVC055 09/04 A3015 RMK AO2 SLP212 T00940039
Loading
Personal Weather Stations






























Interactive Weather Map New forecast layout! Learn more

10-Day Weather Forecast

Advertisements
Track Severe Weather on mobile